sensor_id;sensor_type;location;lat;lon;timestamp;P1;durP1;ratioP1;P2;durP2;ratioP2
49514;SDS011;35415;47.870;16.058;2024-03-08T00:01:41;32.75;;;15.63;;
49514;SDS011;35415;47.870;16.058;2024-03-08T00:04:10;26.80;;;13.93;;
49514;SDS011;35415;47.870;16.058;2024-03-08T00:06:37;34.20;;;16.15;;
49514;SDS011;35415;47.870;16.058;2024-03-08T00:09:05;32.97;;;16.35;;
49514;SDS011;35415;47.870;16.058;2024-03-08T00:11:33;30.00;;;15.40;;
49514;SDS011;35415;47.870;16.058;2024-03-08T00:14:02;29.30;;;14.52;;
49514;SDS011;35415;47.870;16.058;2024-03-08T00:16:32;29.38;;;15.13;;
49514;SDS011;35415;47.870;16.058;2024-03-08T00:18:59;36.58;;;16.75;;
49514;SDS011;35415;47.870;16.058;2024-03-08T00:21:26;30.23;;;15.65;;
49514;SDS011;35415;47.870;16.058;2024-03-08T00:23:53;29.80;;;15.88;;
49514;SDS011;35415;47.870;16.058;2024-03-08T00:26:21;31.48;;;15.18;;
49514;SDS011;35415;47.870;16.058;2024-03-08T00:28:48;30.75;;;15.38;;
49514;SDS011;35415;47.870;16.058;2024-03-08T00:31:17;32.58;;;15.05;;
49514;SDS011;35415;47.870;16.058;2024-03-08T00:33:45;30.02;;;15.65;;
49514;SDS011;35415;47.870;16.058;2024-03-08T00:36:12;31.35;;;15.38;;
49514;SDS011;35415;47.870;16.058;2024-03-08T00:38:39;27.75;;;14.32;;
49514;SDS011;35415;47.870;16.058;2024-03-08T00:41:07;30.27;;;14.80;;
49514;SDS011;35415;47.870;16.058;2024-03-08T00:43:34;30.88;;;15.43;;
49514;SDS011;35415;47.870;16.058;2024-03-08T00:46:02;32.40;;;15.93;;
49514;SDS011;35415;47.870;16.058;2024-03-08T00:48:30;31.58;;;15.75;;
49514;SDS011;35415;47.870;16.058;2024-03-08T00:50:58;30.65;;;16.05;;
49514;SDS011;35415;47.870;16.058;2024-03-08T00:53:25;28.38;;;14.52;;
49514;SDS011;35415;47.870;16.058;2024-03-08T00:55:52;27.73;;;15.05;;
49514;SDS011;35415;47.870;16.058;2024-03-08T00:58:20;25.70;;;13.93;;
49514;SDS011;35415;47.870;16.058;2024-03-08T01:00:49;31.00;;;15.10;;
49514;SDS011;35415;47.870;16.058;2024-03-08T01:03:16;33.30;;;15.63;;
49514;SDS011;35415;47.870;16.058;2024-03-08T01:06:03;30.00;;;14.73;;
49514;SDS011;35415;47.870;16.058;2024-03-08T01:08:31;32.10;;;15.52;;
49514;SDS011;35415;47.870;16.058;2024-03-08T01:10:58;25.83;;;13.40;;
49514;SDS011;35415;47.870;16.058;2024-03-08T01:13:25;28.05;;;14.90;;
49514;SDS011;35415;47.870;16.058;2024-03-08T01:15:52;28.23;;;14.60;;
49514;SDS011;35415;47.870;16.058;2024-03-08T01:18:20;27.33;;;15.25;;
49514;SDS011;35415;47.870;16.058;2024-03-08T01:20:47;27.95;;;14.40;;
49514;SDS011;35415;47.870;16.058;2024-03-08T01:23:15;27.30;;;14.48;;
49514;SDS011;35415;47.870;16.058;2024-03-08T01:25:43;28.40;;;14.63;;
49514;SDS011;35415;47.870;16.058;2024-03-08T01:28:10;30.38;;;15.00;;
49514;SDS011;35415;47.870;16.058;2024-03-08T01:30:38;26.50;;;13.32;;
49514;SDS011;35415;47.870;16.058;2024-03-08T01:33:05;29.25;;;14.02;;
49514;SDS011;35415;47.870;16.058;2024-03-08T01:35:32;30.67;;;14.00;;
49514;SDS011;35415;47.870;16.058;2024-03-08T01:37:59;32.88;;;15.38;;
49514;SDS011;35415;47.870;16.058;2024-03-08T01:40:28;28.98;;;14.85;;
49514;SDS011;35415;47.870;16.058;2024-03-08T01:42:55;29.92;;;14.40;;
49514;SDS011;35415;47.870;16.058;2024-03-08T01:45:23;28.45;;;15.05;;
49514;SDS011;35415;47.870;16.058;2024-03-08T01:47:50;25.70;;;13.68;;
49514;SDS011;35415;47.870;16.058;2024-03-08T01:50:17;33.03;;;14.45;;
49514;SDS011;35415;47.870;16.058;2024-03-08T01:52:45;29.45;;;14.20;;
49514;SDS011;35415;47.870;16.058;2024-03-08T01:55:12;31.25;;;13.95;;
49514;SDS011;35415;47.870;16.058;2024-03-08T01:57:42;25.40;;;14.13;;
49514;SDS011;35415;47.870;16.058;2024-03-08T02:00:10;27.80;;;14.20;;
49514;SDS011;35415;47.870;16.058;2024-03-08T02:02:38;28.95;;;13.73;;
49514;SDS011;35415;47.870;16.058;2024-03-08T02:05:10;28.42;;;13.25;;
49514;SDS011;35415;47.870;16.058;2024-03-08T02:07:40;24.58;;;13.60;;
49514;SDS011;35415;47.870;16.058;2024-03-08T02:10:09;26.38;;;14.25;;
49514;SDS011;35415;47.870;16.058;2024-03-08T02:12:37;29.90;;;14.10;;
49514;SDS011;35415;47.870;16.058;2024-03-08T02:15:07;27.17;;;14.68;;
49514;SDS011;35415;47.870;16.058;2024-03-08T02:17:35;26.05;;;13.68;;
49514;SDS011;35415;47.870;16.058;2024-03-08T02:20:03;28.95;;;15.02;;
49514;SDS011;35415;47.870;16.058;2024-03-08T02:22:32;27.98;;;14.43;;
49514;SDS011;35415;47.870;16.058;2024-03-08T02:24:59;28.30;;;13.90;;
49514;SDS011;35415;47.870;16.058;2024-03-08T02:27:29;28.92;;;14.35;;
49514;SDS011;35415;47.870;16.058;2024-03-08T02:29:57;25.40;;;13.52;;
49514;SDS011;35415;47.870;16.058;2024-03-08T02:32:25;29.58;;;15.73;;
49514;SDS011;35415;47.870;16.058;2024-03-08T02:34:55;26.17;;;14.32;;
49514;SDS011;35415;47.870;16.058;2024-03-08T02:37:25;26.73;;;13.52;;
49514;SDS011;35415;47.870;16.058;2024-03-08T02:39:55;30.15;;;14.75;;
49514;SDS011;35415;47.870;16.058;2024-03-08T02:42:23;25.83;;;14.68;;
49514;SDS011;35415;47.870;16.058;2024-03-08T02:44:50;26.10;;;13.75;;
49514;SDS011;35415;47.870;16.058;2024-03-08T02:47:17;31.48;;;15.85;;
49514;SDS011;35415;47.870;16.058;2024-03-08T02:49:44;27.73;;;13.35;;
49514;SDS011;35415;47.870;16.058;2024-03-08T02:52:11;30.23;;;14.48;;
49514;SDS011;35415;47.870;16.058;2024-03-08T02:54:38;31.35;;;15.30;;
49514;SDS011;35415;47.870;16.058;2024-03-08T02:57:07;29.45;;;14.32;;
49514;SDS011;35415;47.870;16.058;2024-03-08T02:59:35;30.55;;;15.35;;
49514;SDS011;35415;47.870;16.058;2024-03-08T03:02:05;28.98;;;14.82;;
49514;SDS011;35415;47.870;16.058;2024-03-08T03:04:33;27.17;;;14.25;;
49514;SDS011;35415;47.870;16.058;2024-03-08T03:07:01;29.40;;;14.55;;
49514;SDS011;35415;47.870;16.058;2024-03-08T03:09:29;32.58;;;15.98;;
49514;SDS011;35415;47.870;16.058;2024-03-08T03:11:58;27.10;;;14.75;;
49514;SDS011;35415;47.870;16.058;2024-03-08T03:14:26;27.60;;;14.43;;
49514;SDS011;35415;47.870;16.058;2024-03-08T03:16:54;32.45;;;15.45;;
49514;SDS011;35415;47.870;16.058;2024-03-08T03:19:21;27.88;;;14.80;;
49514;SDS011;35415;47.870;16.058;2024-03-08T03:21:49;30.52;;;14.88;;
49514;SDS011;35415;47.870;16.058;2024-03-08T03:24:18;28.10;;;14.45;;
49514;SDS011;35415;47.870;16.058;2024-03-08T03:26:46;30.38;;;14.18;;
49514;SDS011;35415;47.870;16.058;2024-03-08T03:29:14;29.42;;;14.80;;
49514;SDS011;35415;47.870;16.058;2024-03-08T03:31:43;27.85;;;15.55;;
49514;SDS011;35415;47.870;16.058;2024-03-08T03:34:12;30.02;;;14.98;;
49514;SDS011;35415;47.870;16.058;2024-03-08T03:36:39;27.42;;;13.55;;
49514;SDS011;35415;47.870;16.058;2024-03-08T03:39:07;30.13;;;15.02;;
49514;SDS011;35415;47.870;16.058;2024-03-08T03:41:38;29.02;;;14.75;;
49514;SDS011;35415;47.870;16.058;2024-03-08T03:44:05;27.95;;;13.18;;
49514;SDS011;35415;47.870;16.058;2024-03-08T03:46:33;26.88;;;13.57;;
49514;SDS011;35415;47.870;16.058;2024-03-08T03:49:02;29.58;;;14.57;;
49514;SDS011;35415;47.870;16.058;2024-03-08T03:51:30;28.83;;;13.85;;
49514;SDS011;35415;47.870;16.058;2024-03-08T03:53:57;27.52;;;14.90;;
49514;SDS011;35415;47.870;16.058;2024-03-08T03:56:27;28.45;;;14.38;;
49514;SDS011;35415;47.870;16.058;2024-03-08T03:58:55;29.50;;;14.85;;
49514;SDS011;35415;47.870;16.058;2024-03-08T04:01:22;30.02;;;13.98;;
49514;SDS011;35415;47.870;16.058;2024-03-08T04:03:50;31.25;;;14.73;;
49514;SDS011;35415;47.870;16.058;2024-03-08T04:06:18;30.83;;;15.50;;
49514;SDS011;35415;47.870;16.058;2024-03-08T04:08:46;31.50;;;16.10;;
49514;SDS011;35415;47.870;16.058;2024-03-08T04:11:13;30.80;;;15.35;;
49514;SDS011;35415;47.870;16.058;2024-03-08T04:13:41;29.75;;;14.75;;
49514;SDS011;35415;47.870;16.058;2024-03-08T04:16:08;27.90;;;14.63;;
49514;SDS011;35415;47.870;16.058;2024-03-08T04:18:36;34.13;;;16.75;;
49514;SDS011;35415;47.870;16.058;2024-03-08T04:21:04;35.25;;;15.73;;
49514;SDS011;35415;47.870;16.058;2024-03-08T04:23:34;26.35;;;13.75;;
49514;SDS011;35415;47.870;16.058;2024-03-08T04:26:02;27.23;;;14.70;;
49514;SDS011;35415;47.870;16.058;2024-03-08T04:28:30;28.13;;;14.77;;
49514;SDS011;35415;47.870;16.058;2024-03-08T04:30:58;29.77;;;15.55;;
49514;SDS011;35415;47.870;16.058;2024-03-08T04:33:26;32.03;;;15.70;;
49514;SDS011;35415;47.870;16.058;2024-03-08T04:35:53;33.47;;;15.32;;
49514;SDS011;35415;47.870;16.058;2024-03-08T04:38:20;36.90;;;18.10;;
49514;SDS011;35415;47.870;16.058;2024-03-08T04:40:50;33.20;;;16.67;;
49514;SDS011;35415;47.870;16.058;2024-03-08T04:43:18;33.20;;;15.70;;
49514;SDS011;35415;47.870;16.058;2024-03-08T04:45:46;36.72;;;16.23;;
49514;SDS011;35415;47.870;16.058;2024-03-08T04:48:16;30.73;;;15.52;;
49514;SDS011;35415;47.870;16.058;2024-03-08T04:50:43;35.50;;;16.85;;
49514;SDS011;35415;47.870;16.058;2024-03-08T04:53:10;32.65;;;15.80;;
49514;SDS011;35415;47.870;16.058;2024-03-08T04:55:38;38.00;;;17.55;;
49514;SDS011;35415;47.870;16.058;2024-03-08T04:58:06;36.72;;;17.17;;
49514;SDS011;35415;47.870;16.058;2024-03-08T05:00:33;31.02;;;16.15;;
49514;SDS011;35415;47.870;16.058;2024-03-08T05:03:01;33.55;;;17.50;;
49514;SDS011;35415;47.870;16.058;2024-03-08T05:05:29;37.90;;;18.25;;
49514;SDS011;35415;47.870;16.058;2024-03-08T05:07:56;37.55;;;17.98;;
49514;SDS011;35415;47.870;16.058;2024-03-08T05:10:23;35.33;;;18.30;;
49514;SDS011;35415;47.870;16.058;2024-03-08T05:12:51;36.35;;;17.35;;
49514;SDS011;35415;47.870;16.058;2024-03-08T05:15:19;42.63;;;19.13;;
49514;SDS011;35415;47.870;16.058;2024-03-08T05:17:47;37.75;;;18.75;;
49514;SDS011;35415;47.870;16.058;2024-03-08T05:20:14;40.60;;;20.58;;
49514;SDS011;35415;47.870;16.058;2024-03-08T05:22:42;41.38;;;19.70;;
49514;SDS011;35415;47.870;16.058;2024-03-08T05:25:09;41.20;;;19.55;;
49514;SDS011;35415;47.870;16.058;2024-03-08T05:27:37;40.25;;;20.55;;
49514;SDS011;35415;47.870;16.058;2024-03-08T05:30:05;41.47;;;20.25;;
49514;SDS011;35415;47.870;16.058;2024-03-08T05:32:34;37.45;;;19.60;;
49514;SDS011;35415;47.870;16.058;2024-03-08T05:35:02;40.20;;;20.40;;
49514;SDS011;35415;47.870;16.058;2024-03-08T05:37:32;41.15;;;19.02;;
49514;SDS011;35415;47.870;16.058;2024-03-08T05:39:59;38.00;;;19.30;;
49514;SDS011;35415;47.870;16.058;2024-03-08T05:42:26;43.58;;;19.40;;
49514;SDS011;35415;47.870;16.058;2024-03-08T05:44:54;37.22;;;19.30;;
49514;SDS011;35415;47.870;16.058;2024-03-08T05:47:24;40.25;;;20.52;;
49514;SDS011;35415;47.870;16.058;2024-03-08T05:49:52;35.65;;;17.55;;
49514;SDS011;35415;47.870;16.058;2024-03-08T05:52:19;45.70;;;21.25;;
49514;SDS011;35415;47.870;16.058;2024-03-08T05:54:47;40.03;;;19.27;;
49514;SDS011;35415;47.870;16.058;2024-03-08T05:57:14;36.13;;;18.38;;
49514;SDS011;35415;47.870;16.058;2024-03-08T05:59:42;35.85;;;17.95;;
49514;SDS011;35415;47.870;16.058;2024-03-08T06:02:09;41.38;;;18.40;;
49514;SDS011;35415;47.870;16.058;2024-03-08T06:04:36;37.75;;;17.25;;
49514;SDS011;35415;47.870;16.058;2024-03-08T06:07:07;28.63;;;15.80;;
49514;SDS011;35415;47.870;16.058;2024-03-08T06:09:37;20.20;;;10.65;;
49514;SDS011;35415;47.870;16.058;2024-03-08T06:12:05;30.95;;;15.77;;
49514;SDS011;35415;47.870;16.058;2024-03-08T06:14:34;28.80;;;14.90;;
49514;SDS011;35415;47.870;16.058;2024-03-08T06:17:02;32.13;;;15.95;;
49514;SDS011;35415;47.870;16.058;2024-03-08T06:19:31;29.23;;;14.82;;
49514;SDS011;35415;47.870;16.058;2024-03-08T06:21:58;27.88;;;13.63;;
49514;SDS011;35415;47.870;16.058;2024-03-08T06:24:29;28.02;;;14.35;;
49514;SDS011;35415;47.870;16.058;2024-03-08T06:26:57;26.27;;;13.98;;
49514;SDS011;35415;47.870;16.058;2024-03-08T06:29:24;28.65;;;14.68;;
49514;SDS011;35415;47.870;16.058;2024-03-08T06:31:51;24.67;;;13.23;;
49514;SDS011;35415;47.870;16.058;2024-03-08T06:34:18;24.05;;;12.60;;
49514;SDS011;35415;47.870;16.058;2024-03-08T06:36:46;22.52;;;12.07;;
49514;SDS011;35415;47.870;16.058;2024-03-08T06:39:13;25.33;;;12.77;;
49514;SDS011;35415;47.870;16.058;2024-03-08T06:41:41;22.60;;;11.75;;
49514;SDS011;35415;47.870;16.058;2024-03-08T06:44:09;23.17;;;12.05;;
49514;SDS011;35415;47.870;16.058;2024-03-08T06:46:37;19.15;;;11.43;;
49514;SDS011;35415;47.870;16.058;2024-03-08T06:49:04;23.60;;;11.95;;
49514;SDS011;35415;47.870;16.058;2024-03-08T06:51:33;26.67;;;13.75;;
49514;SDS011;35415;47.870;16.058;2024-03-08T06:54:00;23.33;;;12.15;;
49514;SDS011;35415;47.870;16.058;2024-03-08T06:56:33;23.25;;;12.25;;
49514;SDS011;35415;47.870;16.058;2024-03-08T06:59:02;25.52;;;12.48;;
49514;SDS011;35415;47.870;16.058;2024-03-08T07:01:29;27.42;;;13.68;;
49514;SDS011;35415;47.870;16.058;2024-03-08T07:03:57;27.25;;;12.88;;
49514;SDS011;35415;47.870;16.058;2024-03-08T07:06:25;22.77;;;12.63;;
49514;SDS011;35415;47.870;16.058;2024-03-08T07:08:53;25.38;;;12.57;;
49514;SDS011;35415;47.870;16.058;2024-03-08T07:11:21;20.42;;;11.95;;
49514;SDS011;35415;47.870;16.058;2024-03-08T07:13:49;23.60;;;12.30;;
49514;SDS011;35415;47.870;16.058;2024-03-08T07:16:17;25.20;;;12.90;;
49514;SDS011;35415;47.870;16.058;2024-03-08T07:18:46;24.50;;;11.80;;
49514;SDS011;35415;47.870;16.058;2024-03-08T07:21:17;26.45;;;13.73;;
49514;SDS011;35415;47.870;16.058;2024-03-08T07:23:45;23.38;;;12.82;;
49514;SDS011;35415;47.870;16.058;2024-03-08T07:26:38;26.20;;;13.07;;
49514;SDS011;35415;47.870;16.058;2024-03-08T07:29:06;26.80;;;13.30;;
49514;SDS011;35415;47.870;16.058;2024-03-08T07:31:34;25.20;;;13.95;;
49514;SDS011;35415;47.870;16.058;2024-03-08T07:34:15;28.05;;;14.30;;
49514;SDS011;35415;47.870;16.058;2024-03-08T07:36:42;27.52;;;14.75;;
49514;SDS011;35415;47.870;16.058;2024-03-08T07:39:10;31.33;;;14.52;;
49514;SDS011;35415;47.870;16.058;2024-03-08T07:41:38;29.27;;;15.00;;
49514;SDS011;35415;47.870;16.058;2024-03-08T07:44:06;31.60;;;15.02;;
49514;SDS011;35415;47.870;16.058;2024-03-08T07:46:35;29.58;;;15.32;;
49514;SDS011;35415;47.870;16.058;2024-03-08T07:49:03;24.58;;;13.57;;
49514;SDS011;35415;47.870;16.058;2024-03-08T07:51:31;23.63;;;13.45;;
49514;SDS011;35415;47.870;16.058;2024-03-08T07:53:59;24.13;;;13.02;;
49514;SDS011;35415;47.870;16.058;2024-03-08T07:56:29;25.20;;;13.98;;
49514;SDS011;35415;47.870;16.058;2024-03-08T07:58:56;26.02;;;13.57;;
49514;SDS011;35415;47.870;16.058;2024-03-08T08:01:23;24.67;;;13.27;;
49514;SDS011;35415;47.870;16.058;2024-03-08T08:03:52;27.85;;;14.18;;
49514;SDS011;35415;47.870;16.058;2024-03-08T08:06:19;31.58;;;14.70;;
49514;SDS011;35415;47.870;16.058;2024-03-08T08:08:47;27.95;;;15.15;;
49514;SDS011;35415;47.870;16.058;2024-03-08T08:11:14;32.25;;;16.27;;
49514;SDS011;35415;47.870;16.058;2024-03-08T08:13:42;29.67;;;15.65;;
49514;SDS011;35415;47.870;16.058;2024-03-08T08:16:09;30.80;;;15.88;;
49514;SDS011;35415;47.870;16.058;2024-03-08T08:18:38;30.23;;;15.10;;
49514;SDS011;35415;47.870;16.058;2024-03-08T08:21:07;28.52;;;14.70;;
49514;SDS011;35415;47.870;16.058;2024-03-08T08:23:36;25.38;;;13.75;;
49514;SDS011;35415;47.870;16.058;2024-03-08T08:26:03;29.80;;;14.75;;
49514;SDS011;35415;47.870;16.058;2024-03-08T08:28:32;29.30;;;15.07;;
49514;SDS011;35415;47.870;16.058;2024-03-08T08:30:59;25.38;;;13.80;;
49514;SDS011;35415;47.870;16.058;2024-03-08T08:33:29;28.65;;;15.07;;
49514;SDS011;35415;47.870;16.058;2024-03-08T08:35:56;25.65;;;13.52;;
49514;SDS011;35415;47.870;16.058;2024-03-08T08:38:25;27.75;;;14.50;;
49514;SDS011;35415;47.870;16.058;2024-03-08T08:40:52;25.50;;;13.15;;
49514;SDS011;35415;47.870;16.058;2024-03-08T08:43:19;24.08;;;12.60;;
49514;SDS011;35415;47.870;16.058;2024-03-08T08:45:49;26.05;;;14.98;;
49514;SDS011;35415;47.870;16.058;2024-03-08T08:48:19;21.98;;;12.05;;
49514;SDS011;35415;47.870;16.058;2024-03-08T08:50:47;24.75;;;13.05;;
49514;SDS011;35415;47.870;16.058;2024-03-08T08:53:15;25.38;;;12.80;;
49514;SDS011;35415;47.870;16.058;2024-03-08T08:55:45;23.67;;;12.80;;
49514;SDS011;35415;47.870;16.058;2024-03-08T08:58:12;28.58;;;14.70;;
49514;SDS011;35415;47.870;16.058;2024-03-08T09:00:40;26.38;;;13.75;;
49514;SDS011;35415;47.870;16.058;2024-03-08T09:03:07;25.65;;;14.02;;
49514;SDS011;35415;47.870;16.058;2024-03-08T09:05:34;26.08;;;13.68;;
49514;SDS011;35415;47.870;16.058;2024-03-08T09:08:02;24.35;;;13.85;;
49514;SDS011;35415;47.870;16.058;2024-03-08T09:10:30;21.13;;;11.57;;
49514;SDS011;35415;47.870;16.058;2024-03-08T09:13:00;22.42;;;12.77;;
49514;SDS011;35415;47.870;16.058;2024-03-08T09:15:29;30.38;;;14.20;;
49514;SDS011;35415;47.870;16.058;2024-03-08T09:17:56;25.38;;;13.05;;
49514;SDS011;35415;47.870;16.058;2024-03-08T09:20:24;22.60;;;12.60;;
49514;SDS011;35415;47.870;16.058;2024-03-08T09:22:52;25.17;;;13.73;;
49514;SDS011;35415;47.870;16.058;2024-03-08T09:25:20;27.02;;;13.65;;
49514;SDS011;35415;47.870;16.058;2024-03-08T09:27:47;22.02;;;13.38;;
49514;SDS011;35415;47.870;16.058;2024-03-08T09:30:16;23.30;;;12.73;;
49514;SDS011;35415;47.870;16.058;2024-03-08T09:32:44;23.27;;;13.70;;
49514;SDS011;35415;47.870;16.058;2024-03-08T09:35:11;23.88;;;12.80;;
49514;SDS011;35415;47.870;16.058;2024-03-08T09:37:38;23.55;;;12.60;;
49514;SDS011;35415;47.870;16.058;2024-03-08T09:40:06;22.38;;;12.32;;
49514;SDS011;35415;47.870;16.058;2024-03-08T09:42:35;23.33;;;12.68;;
49514;SDS011;35415;47.870;16.058;2024-03-08T09:45:04;21.00;;;11.50;;
49514;SDS011;35415;47.870;16.058;2024-03-08T09:47:39;22.10;;;12.63;;
49514;SDS011;35415;47.870;16.058;2024-03-08T09:50:07;21.50;;;12.02;;
49514;SDS011;35415;47.870;16.058;2024-03-08T09:52:37;20.70;;;11.98;;
49514;SDS011;35415;47.870;16.058;2024-03-08T09:55:05;21.63;;;11.00;;
49514;SDS011;35415;47.870;16.058;2024-03-08T09:57:33;22.08;;;11.27;;
49514;SDS011;35415;47.870;16.058;2024-03-08T10:00:03;17.40;;;10.02;;
49514;SDS011;35415;47.870;16.058;2024-03-08T10:02:46;19.80;;;10.98;;
49514;SDS011;35415;47.870;16.058;2024-03-08T10:05:13;20.17;;;10.68;;
49514;SDS011;35415;47.870;16.058;2024-03-08T10:07:41;21.58;;;11.93;;
49514;SDS011;35415;47.870;16.058;2024-03-08T10:10:08;18.95;;;11.05;;
49514;SDS011;35415;47.870;16.058;2024-03-08T10:12:37;23.23;;;11.95;;
49514;SDS011;35415;47.870;16.058;2024-03-08T10:15:05;22.40;;;12.18;;
49514;SDS011;35415;47.870;16.058;2024-03-08T10:17:34;21.73;;;12.10;;
49514;SDS011;35415;47.870;16.058;2024-03-08T10:20:03;24.00;;;12.40;;
49514;SDS011;35415;47.870;16.058;2024-03-08T10:22:40;22.75;;;11.93;;
49514;SDS011;35415;47.870;16.058;2024-03-08T10:25:08;25.83;;;14.27;;
49514;SDS011;35415;47.870;16.058;2024-03-08T10:27:36;22.20;;;12.43;;
49514;SDS011;35415;47.870;16.058;2024-03-08T10:30:06;21.00;;;11.80;;
49514;SDS011;35415;47.870;16.058;2024-03-08T10:32:38;21.73;;;11.73;;
49514;SDS011;35415;47.870;16.058;2024-03-08T10:35:08;18.63;;;10.93;;
49514;SDS011;35415;47.870;16.058;2024-03-08T10:37:39;20.65;;;12.35;;
49514;SDS011;35415;47.870;16.058;2024-03-08T10:40:14;23.08;;;12.82;;
49514;SDS011;35415;47.870;16.058;2024-03-08T10:42:47;20.97;;;12.03;;
49514;SDS011;35415;47.870;16.058;2024-03-08T10:45:23;25.67;;;13.02;;
49514;SDS011;35415;47.870;16.058;2024-03-08T10:48:02;22.30;;;12.52;;
49514;SDS011;35415;47.870;16.058;2024-03-08T10:50:38;21.15;;;12.13;;
49514;SDS011;35415;47.870;16.058;2024-03-08T10:53:06;22.00;;;12.82;;
49514;SDS011;35415;47.870;16.058;2024-03-08T10:55:34;20.13;;;11.93;;
49514;SDS011;35415;47.870;16.058;2024-03-08T10:58:06;19.67;;;11.73;;
49514;SDS011;35415;47.870;16.058;2024-03-08T11:00:33;20.48;;;11.20;;
49514;SDS011;35415;47.870;16.058;2024-03-08T11:03:01;22.05;;;11.93;;
49514;SDS011;35415;47.870;16.058;2024-03-08T11:05:32;21.98;;;11.63;;
49514;SDS011;35415;47.870;16.058;2024-03-08T11:08:08;24.02;;;13.88;;
49514;SDS011;35415;47.870;16.058;2024-03-08T11:10:48;22.00;;;12.35;;
49514;SDS011;35415;47.870;16.058;2024-03-08T11:13:33;25.10;;;13.02;;
49514;SDS011;35415;47.870;16.058;2024-03-08T11:16:01;20.73;;;12.32;;
49514;SDS011;35415;47.870;16.058;2024-03-08T11:18:32;20.33;;;11.70;;
49514;SDS011;35415;47.870;16.058;2024-03-08T11:21:02;19.05;;;11.75;;
49514;SDS011;35415;47.870;16.058;2024-03-08T11:23:33;19.00;;;10.68;;
49514;SDS011;35415;47.870;16.058;2024-03-08T11:26:01;21.25;;;11.23;;
49514;SDS011;35415;47.870;16.058;2024-03-08T11:28:32;20.52;;;11.55;;
49514;SDS011;35415;47.870;16.058;2024-03-08T11:33:49;20.02;;;11.55;;
49514;SDS011;35415;47.870;16.058;2024-03-08T11:36:20;19.95;;;11.07;;
49514;SDS011;35415;47.870;16.058;2024-03-08T11:38:51;21.52;;;10.30;;
49514;SDS011;35415;47.870;16.058;2024-03-08T11:41:20;17.45;;;11.00;;
49514;SDS011;35415;47.870;16.058;2024-03-08T11:43:48;19.05;;;11.43;;
49514;SDS011;35415;47.870;16.058;2024-03-08T11:46:16;20.00;;;10.75;;
49514;SDS011;35415;47.870;16.058;2024-03-08T11:48:44;19.58;;;11.07;;
49514;SDS011;35415;47.870;16.058;2024-03-08T11:51:14;19.02;;;10.63;;
49514;SDS011;35415;47.870;16.058;2024-03-08T11:53:44;15.82;;;10.43;;
49514;SDS011;35415;47.870;16.058;2024-03-08T11:56:13;17.05;;;9.93;;
49514;SDS011;35415;47.870;16.058;2024-03-08T11:58:41;15.13;;;9.73;;
49514;SDS011;35415;47.870;16.058;2024-03-08T12:01:19;18.75;;;10.35;;
49514;SDS011;35415;47.870;16.058;2024-03-08T12:03:48;14.77;;;9.60;;
49514;SDS011;35415;47.870;16.058;2024-03-08T12:06:19;16.27;;;10.32;;
49514;SDS011;35415;47.870;16.058;2024-03-08T12:08:48;18.85;;;10.93;;
49514;SDS011;35415;47.870;16.058;2024-03-08T12:11:18;15.43;;;9.23;;
49514;SDS011;35415;47.870;16.058;2024-03-08T12:13:48;14.75;;;9.23;;
49514;SDS011;35415;47.870;16.058;2024-03-08T12:16:17;15.13;;;10.18;;
49514;SDS011;35415;47.870;16.058;2024-03-08T12:18:44;16.80;;;9.52;;
49514;SDS011;35415;47.870;16.058;2024-03-08T12:21:12;15.32;;;9.65;;
49514;SDS011;35415;47.870;16.058;2024-03-08T12:23:42;15.05;;;9.20;;
49514;SDS011;35415;47.870;16.058;2024-03-08T12:26:11;14.18;;;8.27;;
49514;SDS011;35415;47.870;16.058;2024-03-08T12:28:41;12.88;;;8.45;;
49514;SDS011;35415;47.870;16.058;2024-03-08T12:31:11;14.52;;;9.23;;
49514;SDS011;35415;47.870;16.058;2024-03-08T12:33:47;13.48;;;9.10;;
49514;SDS011;35415;47.870;16.058;2024-03-08T12:36:15;15.18;;;9.40;;
49514;SDS011;35415;47.870;16.058;2024-03-08T12:38:43;14.23;;;8.27;;
49514;SDS011;35415;47.870;16.058;2024-03-08T12:41:13;15.77;;;9.50;;
49514;SDS011;35415;47.870;16.058;2024-03-08T12:43:41;14.20;;;8.73;;
49514;SDS011;35415;47.870;16.058;2024-03-08T12:46:13;12.70;;;8.07;;
49514;SDS011;35415;47.870;16.058;2024-03-08T12:48:41;13.20;;;7.45;;
49514;SDS011;35415;47.870;16.058;2024-03-08T12:51:12;13.02;;;8.30;;
49514;SDS011;35415;47.870;16.058;2024-03-08T12:53:41;12.52;;;8.20;;
49514;SDS011;35415;47.870;16.058;2024-03-08T12:56:09;12.38;;;7.38;;
49514;SDS011;35415;47.870;16.058;2024-03-08T12:58:36;14.82;;;8.25;;
49514;SDS011;35415;47.870;16.058;2024-03-08T13:01:05;14.45;;;8.55;;
49514;SDS011;35415;47.870;16.058;2024-03-08T13:03:33;12.95;;;8.20;;
49514;SDS011;35415;47.870;16.058;2024-03-08T13:06:01;13.13;;;7.80;;
49514;SDS011;35415;47.870;16.058;2024-03-08T13:08:31;13.05;;;7.88;;
49514;SDS011;35415;47.870;16.058;2024-03-08T13:11:01;12.93;;;7.55;;
49514;SDS011;35415;47.870;16.058;2024-03-08T13:13:28;11.02;;;7.10;;
49514;SDS011;35415;47.870;16.058;2024-03-08T13:15:55;12.13;;;7.03;;
49514;SDS011;35415;47.870;16.058;2024-03-08T13:18:26;13.30;;;7.80;;
49514;SDS011;35415;47.870;16.058;2024-03-08T13:20:54;10.60;;;7.40;;
49514;SDS011;35415;47.870;16.058;2024-03-08T13:23:22;10.57;;;6.63;;
49514;SDS011;35415;47.870;16.058;2024-03-08T13:25:49;10.38;;;6.65;;
49514;SDS011;35415;47.870;16.058;2024-03-08T13:28:17;12.20;;;7.35;;
49514;SDS011;35415;47.870;16.058;2024-03-08T13:30:48;8.50;;;5.75;;
49514;SDS011;35415;47.870;16.058;2024-03-08T13:33:15;9.23;;;6.22;;
49514;SDS011;35415;47.870;16.058;2024-03-08T13:35:44;7.78;;;5.05;;
49514;SDS011;35415;47.870;16.058;2024-03-08T13:38:11;7.72;;;5.68;;
49514;SDS011;35415;47.870;16.058;2024-03-08T13:40:40;8.73;;;5.45;;
49514;SDS011;35415;47.870;16.058;2024-03-08T13:43:07;7.05;;;4.70;;
49514;SDS011;35415;47.870;16.058;2024-03-08T13:45:34;8.93;;;5.35;;
49514;SDS011;35415;47.870;16.058;2024-03-08T13:48:03;7.35;;;4.90;;
49514;SDS011;35415;47.870;16.058;2024-03-08T13:50:31;9.88;;;5.40;;
49514;SDS011;35415;47.870;16.058;2024-03-08T13:53:01;8.63;;;5.10;;
49514;SDS011;35415;47.870;16.058;2024-03-08T13:55:29;8.43;;;5.05;;
49514;SDS011;35415;47.870;16.058;2024-03-08T13:57:57;8.82;;;5.75;;
49514;SDS011;35415;47.870;16.058;2024-03-08T14:00:25;9.80;;;6.43;;
49514;SDS011;35415;47.870;16.058;2024-03-08T14:02:58;13.55;;;7.57;;
49514;SDS011;35415;47.870;16.058;2024-03-08T14:05:25;8.20;;;5.60;;
49514;SDS011;35415;47.870;16.058;2024-03-08T14:07:52;9.43;;;6.15;;
49514;SDS011;35415;47.870;16.058;2024-03-08T14:10:22;11.23;;;6.18;;
49514;SDS011;35415;47.870;16.058;2024-03-08T14:12:49;8.95;;;6.32;;
49514;SDS011;35415;47.870;16.058;2024-03-08T14:15:16;10.68;;;5.90;;
49514;SDS011;35415;47.870;16.058;2024-03-08T14:17:44;8.10;;;5.32;;
49514;SDS011;35415;47.870;16.058;2024-03-08T14:20:12;8.52;;;5.60;;
49514;SDS011;35415;47.870;16.058;2024-03-08T14:22:39;7.35;;;5.32;;